Terminal Aerodrome Forecast
Issued by NWS

Home | Current Version | Previous Version | Text Only | Print | Product List | Glossary On
Versions: 1 2 3 4 5 6 7 8 9 10 11 12 13 14 15 16 17 18 19 20 21 22 23 24 25 26
000
FTUS43 KDMX 031733
TAFOTM
TAF
KOTM 031733Z 0318/0418 19014G21KT P6SM SCT250
     FM040100 18009KT P6SM SCT100
     FM040500 22008KT P6SM VCTS SCT020 OVC040CB
     FM041300 VRB04KT P6SM BKN035=

USA.gov is the U.S. government's official web portal to all federal, state and local government web resources and services.